Georgetown, Georgia
Current Conditions -  °F | °C
As of 6:58 PM on Saturday 22 Nov 2014 (Local Time) from KEUF Reporting Station
Overcast Overcast  
Wind Chill: 61°   Ceiling: 3100
Heat Index: 61°   Visibility: 10mi
Dew Point: 51°   Wind: 5mph
Humidity: 70%   Direction: 60°ENE
Pressure: 30.19"   Gusts: NA
Location:  31.88°N, 85.11°W
Report Text: KEUF 222358Z AUTO 06004KT 10SM OVC031 16/11 A3019 RMK AO2 SLP220 60000 T01610106 10217 20161 56006 $
Loading
Personal Weather Stations






























Interactive Weather Map New forecast layout! Learn more

10-Day Weather Forecast

Advertisements
Track Severe Weather on mobile